sensor_id;sensor_type;location;lat;lon;timestamp;P1;durP1;ratioP1;P2;durP2;ratioP2
11763;SDS011;5939;56.522;14.950;2023-04-16T00:00:46;6.00;;;4.93;;
11763;SDS011;5939;56.522;14.950;2023-04-16T00:03:12;6.77;;;5.20;;
11763;SDS011;5939;56.522;14.950;2023-04-16T00:05:38;7.37;;;5.07;;
11763;SDS011;5939;56.522;14.950;2023-04-16T00:08:04;6.43;;;5.27;;
11763;SDS011;5939;56.522;14.950;2023-04-16T00:10:29;6.10;;;4.67;;
11763;SDS011;5939;56.522;14.950;2023-04-16T00:12:55;8.77;;;4.23;;
11763;SDS011;5939;56.522;14.950;2023-04-16T00:15:21;5.87;;;4.90;;
11763;SDS011;5939;56.522;14.950;2023-04-16T00:17:47;8.57;;;4.90;;
11763;SDS011;5939;56.522;14.950;2023-04-16T00:20:12;5.90;;;5.13;;
11763;SDS011;5939;56.522;14.950;2023-04-16T00:22:38;5.33;;;4.70;;
11763;SDS011;5939;56.522;14.950;2023-04-16T00:25:04;7.10;;;5.00;;
11763;SDS011;5939;56.522;14.950;2023-04-16T00:27:29;5.93;;;5.13;;
11763;SDS011;5939;56.522;14.950;2023-04-16T00:29:55;7.93;;;4.90;;
11763;SDS011;5939;56.522;14.950;2023-04-16T00:32:21;5.57;;;4.80;;
11763;SDS011;5939;56.522;14.950;2023-04-16T00:34:46;6.27;;;4.83;;
11763;SDS011;5939;56.522;14.950;2023-04-16T00:37:12;5.50;;;4.50;;
11763;SDS011;5939;56.522;14.950;2023-04-16T00:39:38;6.43;;;4.90;;
11763;SDS011;5939;56.522;14.950;2023-04-16T00:42:03;6.13;;;4.83;;
11763;SDS011;5939;56.522;14.950;2023-04-16T00:44:29;6.03;;;5.40;;
11763;SDS011;5939;56.522;14.950;2023-04-16T00:46:55;6.50;;;4.87;;
11763;SDS011;5939;56.522;14.950;2023-04-16T00:49:23;6.33;;;4.90;;
11763;SDS011;5939;56.522;14.950;2023-04-16T00:51:49;7.33;;;4.70;;
11763;SDS011;5939;56.522;14.950;2023-04-16T00:54:15;5.50;;;4.90;;
11763;SDS011;5939;56.522;14.950;2023-04-16T00:56:40;5.63;;;4.20;;
11763;SDS011;5939;56.522;14.950;2023-04-16T00:59:07;5.10;;;4.50;;
11763;SDS011;5939;56.522;14.950;2023-04-16T01:01:32;5.93;;;4.60;;
11763;SDS011;5939;56.522;14.950;2023-04-16T01:03:58;4.80;;;4.10;;
11763;SDS011;5939;56.522;14.950;2023-04-16T01:06:24;6.30;;;4.77;;
11763;SDS011;5939;56.522;14.950;2023-04-16T01:08:51;6.90;;;4.60;;
11763;SDS011;5939;56.522;14.950;2023-04-16T01:11:17;5.73;;;4.47;;
11763;SDS011;5939;56.522;14.950;2023-04-16T01:13:42;6.70;;;5.13;;
11763;SDS011;5939;56.522;14.950;2023-04-16T01:16:09;7.27;;;4.63;;
11763;SDS011;5939;56.522;14.950;2023-04-16T01:18:36;6.33;;;4.97;;
11763;SDS011;5939;56.522;14.950;2023-04-16T01:21:02;5.80;;;4.43;;
11763;SDS011;5939;56.522;14.950;2023-04-16T01:23:29;5.87;;;4.63;;
11763;SDS011;5939;56.522;14.950;2023-04-16T01:25:55;5.80;;;4.50;;
11763;SDS011;5939;56.522;14.950;2023-04-16T01:28:21;5.07;;;4.13;;
11763;SDS011;5939;56.522;14.950;2023-04-16T01:30:47;6.50;;;4.70;;
11763;SDS011;5939;56.522;14.950;2023-04-16T01:33:12;6.40;;;4.60;;
11763;SDS011;5939;56.522;14.950;2023-04-16T01:35:38;5.97;;;4.53;;
11763;SDS011;5939;56.522;14.950;2023-04-16T01:38:05;6.23;;;4.30;;
11763;SDS011;5939;56.522;14.950;2023-04-16T01:40:33;5.63;;;4.40;;
11763;SDS011;5939;56.522;14.950;2023-04-16T01:42:59;5.77;;;4.10;;
11763;SDS011;5939;56.522;14.950;2023-04-16T01:45:25;6.87;;;4.50;;
11763;SDS011;5939;56.522;14.950;2023-04-16T01:47:50;5.90;;;4.60;;
11763;SDS011;5939;56.522;14.950;2023-04-16T01:50:16;6.10;;;5.00;;
11763;SDS011;5939;56.522;14.950;2023-04-16T01:52:45;5.07;;;4.30;;
11763;SDS011;5939;56.522;14.950;2023-04-16T01:55:11;6.23;;;4.27;;
11763;SDS011;5939;56.522;14.950;2023-04-16T01:57:37;5.50;;;4.17;;
11763;SDS011;5939;56.522;14.950;2023-04-16T02:00:03;6.13;;;4.40;;
11763;SDS011;5939;56.522;14.950;2023-04-16T02:02:29;5.00;;;4.00;;
11763;SDS011;5939;56.522;14.950;2023-04-16T02:04:55;5.37;;;4.17;;
11763;SDS011;5939;56.522;14.950;2023-04-16T02:07:22;7.87;;;4.27;;
11763;SDS011;5939;56.522;14.950;2023-04-16T02:09:48;5.87;;;4.57;;
11763;SDS011;5939;56.522;14.950;2023-04-16T02:12:17;5.80;;;4.43;;
11763;SDS011;5939;56.522;14.950;2023-04-16T02:14:42;4.97;;;3.70;;
11763;SDS011;5939;56.522;14.950;2023-04-16T02:17:08;5.90;;;4.40;;
11763;SDS011;5939;56.522;14.950;2023-04-16T02:19:34;7.63;;;4.43;;
11763;SDS011;5939;56.522;14.950;2023-04-16T02:22:00;7.27;;;4.67;;
11763;SDS011;5939;56.522;14.950;2023-04-16T02:24:26;6.60;;;4.07;;
11763;SDS011;5939;56.522;14.950;2023-04-16T02:26:52;6.07;;;4.17;;
11763;SDS011;5939;56.522;14.950;2023-04-16T02:29:17;6.10;;;4.60;;
11763;SDS011;5939;56.522;14.950;2023-04-16T02:31:43;5.33;;;4.07;;
11763;SDS011;5939;56.522;14.950;2023-04-16T02:34:10;5.57;;;4.10;;
11763;SDS011;5939;56.522;14.950;2023-04-16T02:36:36;5.57;;;3.90;;
11763;SDS011;5939;56.522;14.950;2023-04-16T02:39:01;7.13;;;4.90;;
11763;SDS011;5939;56.522;14.950;2023-04-16T02:41:27;5.37;;;4.17;;
11763;SDS011;5939;56.522;14.950;2023-04-16T02:43:53;5.63;;;4.37;;
11763;SDS011;5939;56.522;14.950;2023-04-16T02:46:19;7.07;;;4.63;;
11763;SDS011;5939;56.522;14.950;2023-04-16T02:48:44;6.10;;;4.33;;
11763;SDS011;5939;56.522;14.950;2023-04-16T02:51:10;5.43;;;4.20;;
11763;SDS011;5939;56.522;14.950;2023-04-16T02:53:35;5.17;;;3.73;;
11763;SDS011;5939;56.522;14.950;2023-04-16T02:56:01;6.67;;;4.23;;
11763;SDS011;5939;56.522;14.950;2023-04-16T02:58:27;5.70;;;4.13;;
11763;SDS011;5939;56.522;14.950;2023-04-16T03:00:53;5.23;;;4.00;;
11763;SDS011;5939;56.522;14.950;2023-04-16T03:03:19;5.63;;;4.13;;
11763;SDS011;5939;56.522;14.950;2023-04-16T03:05:45;5.67;;;4.77;;
11763;SDS011;5939;56.522;14.950;2023-04-16T03:08:11;4.60;;;3.77;;
11763;SDS011;5939;56.522;14.950;2023-04-16T03:10:37;4.80;;;4.03;;
11763;SDS011;5939;56.522;14.950;2023-04-16T03:13:03;5.10;;;3.77;;
11763;SDS011;5939;56.522;14.950;2023-04-16T03:15:29;5.37;;;3.83;;
11763;SDS011;5939;56.522;14.950;2023-04-16T03:17:55;6.40;;;4.00;;
11763;SDS011;5939;56.522;14.950;2023-04-16T03:20:21;5.60;;;4.23;;
11763;SDS011;5939;56.522;14.950;2023-04-16T03:22:47;5.23;;;4.20;;
11763;SDS011;5939;56.522;14.950;2023-04-16T03:25:13;8.10;;;4.53;;
11763;SDS011;5939;56.522;14.950;2023-04-16T03:27:39;5.57;;;3.53;;
11763;SDS011;5939;56.522;14.950;2023-04-16T03:30:14;6.03;;;3.90;;
11763;SDS011;5939;56.522;14.950;2023-04-16T03:32:40;5.53;;;4.17;;
11763;SDS011;5939;56.522;14.950;2023-04-16T03:35:07;7.00;;;4.27;;
11763;SDS011;5939;56.522;14.950;2023-04-16T03:37:33;5.20;;;3.77;;
11763;SDS011;5939;56.522;14.950;2023-04-16T03:39:59;6.43;;;4.10;;
11763;SDS011;5939;56.522;14.950;2023-04-16T03:42:25;5.37;;;4.07;;
11763;SDS011;5939;56.522;14.950;2023-04-16T03:44:51;4.90;;;3.90;;
11763;SDS011;5939;56.522;14.950;2023-04-16T03:47:18;5.03;;;4.20;;
11763;SDS011;5939;56.522;14.950;2023-04-16T03:49:45;5.13;;;3.80;;
11763;SDS011;5939;56.522;14.950;2023-04-16T03:52:11;6.10;;;3.90;;
11763;SDS011;5939;56.522;14.950;2023-04-16T03:54:36;4.77;;;3.67;;
11763;SDS011;5939;56.522;14.950;2023-04-16T03:57:02;5.03;;;3.67;;
11763;SDS011;5939;56.522;14.950;2023-04-16T03:59:28;6.40;;;4.30;;
11763;SDS011;5939;56.522;14.950;2023-04-16T04:01:53;5.20;;;4.10;;
11763;SDS011;5939;56.522;14.950;2023-04-16T04:04:19;7.30;;;4.23;;
11763;SDS011;5939;56.522;14.950;2023-04-16T04:06:45;6.53;;;3.83;;
11763;SDS011;5939;56.522;14.950;2023-04-16T04:09:11;6.40;;;3.73;;
11763;SDS011;5939;56.522;14.950;2023-04-16T04:11:37;5.17;;;3.70;;
11763;SDS011;5939;56.522;14.950;2023-04-16T04:14:03;7.07;;;3.77;;
11763;SDS011;5939;56.522;14.950;2023-04-16T04:16:29;5.53;;;4.57;;
11763;SDS011;5939;56.522;14.950;2023-04-16T04:18:55;4.33;;;3.63;;
11763;SDS011;5939;56.522;14.950;2023-04-16T04:21:21;5.37;;;3.90;;
11763;SDS011;5939;56.522;14.950;2023-04-16T04:23:46;4.47;;;4.00;;
11763;SDS011;5939;56.522;14.950;2023-04-16T04:26:12;6.10;;;3.80;;
11763;SDS011;5939;56.522;14.950;2023-04-16T04:28:38;4.47;;;3.60;;
11763;SDS011;5939;56.522;14.950;2023-04-16T04:31:03;5.63;;;3.60;;
11763;SDS011;5939;56.522;14.950;2023-04-16T04:33:29;5.50;;;4.13;;
11763;SDS011;5939;56.522;14.950;2023-04-16T04:35:55;4.73;;;3.70;;
11763;SDS011;5939;56.522;14.950;2023-04-16T04:38:21;7.23;;;4.07;;
11763;SDS011;5939;56.522;14.950;2023-04-16T04:40:49;6.23;;;3.63;;
11763;SDS011;5939;56.522;14.950;2023-04-16T04:43:16;7.37;;;3.97;;
11763;SDS011;5939;56.522;14.950;2023-04-16T04:45:42;5.67;;;3.83;;
11763;SDS011;5939;56.522;14.950;2023-04-16T04:48:08;5.37;;;3.80;;
11763;SDS011;5939;56.522;14.950;2023-04-16T04:50:35;5.23;;;3.50;;
11763;SDS011;5939;56.522;14.950;2023-04-16T04:53:00;5.20;;;3.70;;
11763;SDS011;5939;56.522;14.950;2023-04-16T04:55:26;4.60;;;3.77;;
11763;SDS011;5939;56.522;14.950;2023-04-16T04:57:52;4.70;;;3.80;;
11763;SDS011;5939;56.522;14.950;2023-04-16T05:00:17;4.97;;;3.33;;
11763;SDS011;5939;56.522;14.950;2023-04-16T05:02:43;4.67;;;3.73;;
11763;SDS011;5939;56.522;14.950;2023-04-16T05:05:09;4.40;;;3.70;;
11763;SDS011;5939;56.522;14.950;2023-04-16T05:07:34;6.23;;;4.10;;
11763;SDS011;5939;56.522;14.950;2023-04-16T05:10:00;6.37;;;3.90;;
11763;SDS011;5939;56.522;14.950;2023-04-16T05:12:26;5.60;;;3.93;;
11763;SDS011;5939;56.522;14.950;2023-04-16T05:14:52;4.03;;;3.60;;
11763;SDS011;5939;56.522;14.950;2023-04-16T05:17:17;6.50;;;3.83;;
11763;SDS011;5939;56.522;14.950;2023-04-16T05:19:43;6.27;;;3.47;;
11763;SDS011;5939;56.522;14.950;2023-04-16T05:22:09;5.97;;;4.40;;
11763;SDS011;5939;56.522;14.950;2023-04-16T05:24:34;4.40;;;3.60;;
11763;SDS011;5939;56.522;14.950;2023-04-16T05:27:00;5.53;;;3.50;;
11763;SDS011;5939;56.522;14.950;2023-04-16T05:29:26;7.27;;;3.90;;
11763;SDS011;5939;56.522;14.950;2023-04-16T05:31:52;4.20;;;3.63;;
11763;SDS011;5939;56.522;14.950;2023-04-16T05:34:17;5.00;;;3.73;;
11763;SDS011;5939;56.522;14.950;2023-04-16T05:36:43;4.60;;;3.43;;
11763;SDS011;5939;56.522;14.950;2023-04-16T05:39:09;6.00;;;4.23;;
11763;SDS011;5939;56.522;14.950;2023-04-16T05:41:35;5.87;;;3.87;;
11763;SDS011;5939;56.522;14.950;2023-04-16T05:44:01;7.20;;;4.03;;
11763;SDS011;5939;56.522;14.950;2023-04-16T05:46:26;5.53;;;3.87;;
11763;SDS011;5939;56.522;14.950;2023-04-16T05:48:52;5.83;;;4.30;;
11763;SDS011;5939;56.522;14.950;2023-04-16T05:51:17;5.93;;;3.80;;
11763;SDS011;5939;56.522;14.950;2023-04-16T05:53:44;5.10;;;3.63;;
11763;SDS011;5939;56.522;14.950;2023-04-16T05:56:09;5.40;;;3.73;;
11763;SDS011;5939;56.522;14.950;2023-04-16T05:58:35;6.23;;;3.77;;
11763;SDS011;5939;56.522;14.950;2023-04-16T06:01:01;5.83;;;3.70;;
11763;SDS011;5939;56.522;14.950;2023-04-16T06:03:27;4.93;;;3.87;;
11763;SDS011;5939;56.522;14.950;2023-04-16T06:05:52;4.93;;;4.17;;
11763;SDS011;5939;56.522;14.950;2023-04-16T06:08:18;4.50;;;3.50;;
11763;SDS011;5939;56.522;14.950;2023-04-16T06:10:44;4.60;;;4.07;;
11763;SDS011;5939;56.522;14.950;2023-04-16T06:13:11;5.97;;;3.73;;
11763;SDS011;5939;56.522;14.950;2023-04-16T06:15:37;4.97;;;3.57;;
11763;SDS011;5939;56.522;14.950;2023-04-16T06:18:02;5.30;;;3.40;;
11763;SDS011;5939;56.522;14.950;2023-04-16T06:20:28;6.30;;;3.57;;
11763;SDS011;5939;56.522;14.950;2023-04-16T06:22:54;4.27;;;3.37;;
11763;SDS011;5939;56.522;14.950;2023-04-16T06:25:20;6.13;;;4.07;;
11763;SDS011;5939;56.522;14.950;2023-04-16T06:27:46;5.90;;;3.63;;
11763;SDS011;5939;56.522;14.950;2023-04-16T06:30:12;5.90;;;3.97;;
11763;SDS011;5939;56.522;14.950;2023-04-16T06:32:43;4.87;;;4.10;;
11763;SDS011;5939;56.522;14.950;2023-04-16T06:35:10;4.60;;;3.10;;
11763;SDS011;5939;56.522;14.950;2023-04-16T06:37:35;4.57;;;3.33;;
11763;SDS011;5939;56.522;14.950;2023-04-16T06:40:01;5.40;;;3.63;;
11763;SDS011;5939;56.522;14.950;2023-04-16T06:42:27;5.60;;;3.57;;
11763;SDS011;5939;56.522;14.950;2023-04-16T06:44:53;5.07;;;3.40;;
11763;SDS011;5939;56.522;14.950;2023-04-16T06:47:18;6.03;;;3.90;;
11763;SDS011;5939;56.522;14.950;2023-04-16T06:49:44;4.63;;;3.33;;
11763;SDS011;5939;56.522;14.950;2023-04-16T06:52:10;4.83;;;3.50;;
11763;SDS011;5939;56.522;14.950;2023-04-16T06:54:36;5.93;;;3.40;;
11763;SDS011;5939;56.522;14.950;2023-04-16T06:57:01;7.00;;;3.93;;
11763;SDS011;5939;56.522;14.950;2023-04-16T06:59:27;4.80;;;3.40;;
11763;SDS011;5939;56.522;14.950;2023-04-16T07:01:53;6.03;;;3.30;;
11763;SDS011;5939;56.522;14.950;2023-04-16T07:04:19;4.20;;;3.57;;
11763;SDS011;5939;56.522;14.950;2023-04-16T07:06:45;4.77;;;3.40;;
11763;SDS011;5939;56.522;14.950;2023-04-16T07:09:10;4.77;;;3.83;;
11763;SDS011;5939;56.522;14.950;2023-04-16T07:11:36;4.97;;;3.50;;
11763;SDS011;5939;56.522;14.950;2023-04-16T07:14:02;4.27;;;3.53;;
11763;SDS011;5939;56.522;14.950;2023-04-16T07:16:27;4.80;;;3.80;;
11763;SDS011;5939;56.522;14.950;2023-04-16T07:18:53;4.63;;;3.30;;
11763;SDS011;5939;56.522;14.950;2023-04-16T07:21:19;5.40;;;3.70;;
11763;SDS011;5939;56.522;14.950;2023-04-16T07:23:45;5.87;;;3.77;;
11763;SDS011;5939;56.522;14.950;2023-04-16T07:26:10;4.43;;;3.63;;
11763;SDS011;5939;56.522;14.950;2023-04-16T07:28:36;4.20;;;3.63;;
11763;SDS011;5939;56.522;14.950;2023-04-16T07:31:02;4.40;;;3.53;;
11763;SDS011;5939;56.522;14.950;2023-04-16T07:33:27;4.17;;;3.50;;
11763;SDS011;5939;56.522;14.950;2023-04-16T07:35:53;5.43;;;3.70;;
11763;SDS011;5939;56.522;14.950;2023-04-16T07:38:19;4.03;;;3.57;;
11763;SDS011;5939;56.522;14.950;2023-04-16T07:40:44;6.63;;;3.77;;
11763;SDS011;5939;56.522;14.950;2023-04-16T07:43:10;6.53;;;3.87;;
11763;SDS011;5939;56.522;14.950;2023-04-16T07:45:36;4.60;;;3.60;;
11763;SDS011;5939;56.522;14.950;2023-04-16T07:48:01;7.47;;;3.40;;
11763;SDS011;5939;56.522;14.950;2023-04-16T07:50:27;5.07;;;3.30;;
11763;SDS011;5939;56.522;14.950;2023-04-16T07:52:52;5.57;;;3.40;;
11763;SDS011;5939;56.522;14.950;2023-04-16T07:55:18;6.37;;;4.07;;
11763;SDS011;5939;56.522;14.950;2023-04-16T07:57:44;7.20;;;3.93;;
11763;SDS011;5939;56.522;14.950;2023-04-16T08:00:10;6.97;;;4.27;;
11763;SDS011;5939;56.522;14.950;2023-04-16T08:02:36;6.20;;;3.73;;
11763;SDS011;5939;56.522;14.950;2023-04-16T08:05:02;4.17;;;3.60;;
11763;SDS011;5939;56.522;14.950;2023-04-16T08:07:27;7.07;;;3.90;;
11763;SDS011;5939;56.522;14.950;2023-04-16T08:09:53;4.87;;;3.47;;
11763;SDS011;5939;56.522;14.950;2023-04-16T08:12:19;5.07;;;4.10;;
11763;SDS011;5939;56.522;14.950;2023-04-16T08:14:45;4.83;;;3.80;;
11763;SDS011;5939;56.522;14.950;2023-04-16T08:17:12;5.57;;;3.70;;
11763;SDS011;5939;56.522;14.950;2023-04-16T08:19:41;5.67;;;3.97;;
11763;SDS011;5939;56.522;14.950;2023-04-16T08:22:07;5.67;;;3.20;;
11763;SDS011;5939;56.522;14.950;2023-04-16T08:24:33;6.17;;;4.23;;
11763;SDS011;5939;56.522;14.950;2023-04-16T08:26:59;6.97;;;3.97;;
11763;SDS011;5939;56.522;14.950;2023-04-16T08:29:24;4.63;;;3.50;;
11763;SDS011;5939;56.522;14.950;2023-04-16T08:31:50;5.23;;;3.67;;
11763;SDS011;5939;56.522;14.950;2023-04-16T08:34:20;4.87;;;3.97;;
11763;SDS011;5939;56.522;14.950;2023-04-16T08:36:45;4.20;;;3.80;;
11763;SDS011;5939;56.522;14.950;2023-04-16T08:39:11;5.27;;;3.60;;
11763;SDS011;5939;56.522;14.950;2023-04-16T08:41:37;5.10;;;3.57;;
11763;SDS011;5939;56.522;14.950;2023-04-16T08:44:07;6.20;;;4.13;;
11763;SDS011;5939;56.522;14.950;2023-04-16T08:46:35;6.63;;;3.80;;
11763;SDS011;5939;56.522;14.950;2023-04-16T08:49:05;5.97;;;3.73;;
11763;SDS011;5939;56.522;14.950;2023-04-16T08:51:34;5.50;;;3.67;;
11763;SDS011;5939;56.522;14.950;2023-04-16T08:54:03;5.83;;;4.13;;
11763;SDS011;5939;56.522;14.950;2023-04-16T08:56:34;5.10;;;3.83;;
11763;SDS011;5939;56.522;14.950;2023-04-16T08:59:01;4.23;;;3.57;;
11763;SDS011;5939;56.522;14.950;2023-04-16T09:01:30;4.70;;;4.00;;
11763;SDS011;5939;56.522;14.950;2023-04-16T09:03:57;4.03;;;3.63;;
11763;SDS011;5939;56.522;14.950;2023-04-16T09:06:26;5.10;;;4.07;;
11763;SDS011;5939;56.522;14.950;2023-04-16T09:08:52;4.40;;;4.00;;
11763;SDS011;5939;56.522;14.950;2023-04-16T09:11:19;5.73;;;4.03;;
11763;SDS011;5939;56.522;14.950;2023-04-16T09:13:45;5.57;;;4.23;;
11763;SDS011;5939;56.522;14.950;2023-04-16T09:16:11;7.33;;;3.83;;
11763;SDS011;5939;56.522;14.950;2023-04-16T09:18:38;7.07;;;4.10;;
11763;SDS011;5939;56.522;14.950;2023-04-16T09:21:04;5.90;;;3.90;;
11763;SDS011;5939;56.522;14.950;2023-04-16T09:23:31;5.70;;;3.60;;
11763;SDS011;5939;56.522;14.950;2023-04-16T09:25:57;5.43;;;3.93;;
11763;SDS011;5939;56.522;14.950;2023-04-16T09:28:46;6.27;;;4.37;;
11763;SDS011;5939;56.522;14.950;2023-04-16T09:31:13;6.17;;;4.10;;
11763;SDS011;5939;56.522;14.950;2023-04-16T09:33:43;6.67;;;4.63;;
11763;SDS011;5939;56.522;14.950;2023-04-16T09:36:29;7.43;;;4.27;;
11763;SDS011;5939;56.522;14.950;2023-04-16T09:38:56;5.70;;;4.00;;
11763;SDS011;5939;56.522;14.950;2023-04-16T09:41:29;6.30;;;4.17;;
11763;SDS011;5939;56.522;14.950;2023-04-16T09:44:00;5.97;;;4.30;;
11763;SDS011;5939;56.522;14.950;2023-04-16T09:48:56;6.33;;;3.80;;
11763;SDS011;5939;56.522;14.950;2023-04-16T09:51:22;5.27;;;4.00;;
11763;SDS011;5939;56.522;14.950;2023-04-16T09:53:51;5.63;;;4.03;;
11763;SDS011;5939;56.522;14.950;2023-04-16T09:56:22;8.63;;;4.60;;
11763;SDS011;5939;56.522;14.950;2023-04-16T09:58:49;4.63;;;4.13;;
11763;SDS011;5939;56.522;14.950;2023-04-16T10:01:20;7.37;;;4.37;;
11763;SDS011;5939;56.522;14.950;2023-04-16T10:03:47;5.87;;;3.83;;
11763;SDS011;5939;56.522;14.950;2023-04-16T10:06:15;7.33;;;3.93;;
11763;SDS011;5939;56.522;14.950;2023-04-16T10:08:47;5.93;;;4.57;;
11763;SDS011;5939;56.522;14.950;2023-04-16T10:11:14;5.23;;;4.10;;
11763;SDS011;5939;56.522;14.950;2023-04-16T10:13:40;5.43;;;4.23;;
11763;SDS011;5939;56.522;14.950;2023-04-16T10:16:09;5.90;;;4.67;;
11763;SDS011;5939;56.522;14.950;2023-04-16T10:18:36;5.27;;;4.17;;
11763;SDS011;5939;56.522;14.950;2023-04-16T10:21:03;6.03;;;4.57;;
11763;SDS011;5939;56.522;14.950;2023-04-16T10:23:31;6.50;;;4.07;;
11763;SDS011;5939;56.522;14.950;2023-04-16T10:25:57;5.13;;;3.90;;
11763;SDS011;5939;56.522;14.950;2023-04-16T10:28:24;4.47;;;4.07;;
11763;SDS011;5939;56.522;14.950;2023-04-16T10:30:51;4.97;;;3.60;;
11763;SDS011;5939;56.522;14.950;2023-04-16T10:33:19;5.67;;;4.20;;
11763;SDS011;5939;56.522;14.950;2023-04-16T10:35:46;7.67;;;4.37;;
11763;SDS011;5939;56.522;14.950;2023-04-16T10:38:24;7.47;;;4.40;;
11763;SDS011;5939;56.522;14.950;2023-04-16T10:40:58;4.77;;;4.13;;
11763;SDS011;5939;56.522;14.950;2023-04-16T10:43:26;6.20;;;4.20;;
11763;SDS011;5939;56.522;14.950;2023-04-16T10:45:53;5.83;;;4.60;;
11763;SDS011;5939;56.522;14.950;2023-04-16T10:48:19;6.27;;;4.50;;
11763;SDS011;5939;56.522;14.950;2023-04-16T10:50:57;4.97;;;4.47;;
11763;SDS011;5939;56.522;14.950;2023-04-16T10:53:25;6.40;;;4.50;;
11763;SDS011;5939;56.522;14.950;2023-04-16T10:55:55;4.90;;;4.10;;
11763;SDS011;5939;56.522;14.950;2023-04-16T10:58:30;6.47;;;4.33;;
11763;SDS011;5939;56.522;14.950;2023-04-16T11:01:00;7.77;;;4.77;;
11763;SDS011;5939;56.522;14.950;2023-04-16T11:03:30;6.13;;;4.30;;
11763;SDS011;5939;56.522;14.950;2023-04-16T11:06:15;6.87;;;4.37;;
11763;SDS011;5939;56.522;14.950;2023-04-16T11:08:49;7.73;;;4.33;;
11763;SDS011;5939;56.522;14.950;2023-04-16T11:11:16;5.10;;;4.27;;
11763;SDS011;5939;56.522;14.950;2023-04-16T11:13:43;5.73;;;4.80;;
11763;SDS011;5939;56.522;14.950;2023-04-16T11:16:10;6.60;;;5.20;;
11763;SDS011;5939;56.522;14.950;2023-04-16T11:18:37;7.53;;;4.20;;
11763;SDS011;5939;56.522;14.950;2023-04-16T11:21:08;5.60;;;4.00;;
11763;SDS011;5939;56.522;14.950;2023-04-16T11:23:44;6.23;;;4.17;;
11763;SDS011;5939;56.522;14.950;2023-04-16T11:28:45;6.80;;;4.47;;
11763;SDS011;5939;56.522;14.950;2023-04-16T11:31:11;6.30;;;4.50;;
11763;SDS011;5939;56.522;14.950;2023-04-16T11:33:36;7.60;;;4.77;;
11763;SDS011;5939;56.522;14.950;2023-04-16T11:36:03;5.63;;;4.40;;
11763;SDS011;5939;56.522;14.950;2023-04-16T11:38:33;5.03;;;4.20;;
11763;SDS011;5939;56.522;14.950;2023-04-16T11:41:04;8.33;;;4.40;;
11763;SDS011;5939;56.522;14.950;2023-04-16T11:43:31;4.87;;;4.20;;
11763;SDS011;5939;56.522;14.950;2023-04-16T11:45:57;6.90;;;4.23;;
11763;SDS011;5939;56.522;14.950;2023-04-16T11:48:23;7.47;;;4.70;;
11763;SDS011;5939;56.522;14.950;2023-04-16T11:50:58;7.90;;;4.43;;
11763;SDS011;5939;56.522;14.950;2023-04-16T11:53:24;5.10;;;4.60;;
11763;SDS011;5939;56.522;14.950;2023-04-16T11:55:50;5.57;;;4.20;;
11763;SDS011;5939;56.522;14.950;2023-04-16T11:58:15;5.73;;;4.47;;
11763;SDS011;5939;56.522;14.950;2023-04-16T12:00:41;7.73;;;4.80;;
11763;SDS011;5939;56.522;14.950;2023-04-16T12:03:07;6.37;;;4.67;;
11763;SDS011;5939;56.522;14.950;2023-04-16T12:05:33;8.53;;;4.67;;
11763;SDS011;5939;56.522;14.950;2023-04-16T12:08:02;6.03;;;4.50;;
11763;SDS011;5939;56.522;14.950;2023-04-16T12:10:33;7.30;;;4.70;;
11763;SDS011;5939;56.522;14.950;2023-04-16T12:13:13;6.57;;;5.13;;
11763;SDS011;5939;56.522;14.950;2023-04-16T12:15:43;8.27;;;5.00;;
11763;SDS011;5939;56.522;14.950;2023-04-16T12:18:21;7.97;;;5.60;;
11763;SDS011;5939;56.522;14.950;2023-04-16T12:20:48;7.63;;;4.90;;
11763;SDS011;5939;56.522;14.950;2023-04-16T12:23:27;6.37;;;4.90;;
11763;SDS011;5939;56.522;14.950;2023-04-16T12:25:54;6.87;;;4.97;;
11763;SDS011;5939;56.522;14.950;2023-04-16T12:28:30;7.93;;;5.43;;
11763;SDS011;5939;56.522;14.950;2023-04-16T12:30:57;7.50;;;4.80;;
11763;SDS011;5939;56.522;14.950;2023-04-16T12:33:23;7.80;;;5.43;;
11763;SDS011;5939;56.522;14.950;2023-04-16T12:35:49;8.83;;;5.30;;
11763;SDS011;5939;56.522;14.950;2023-04-16T12:38:15;6.50;;;5.17;;
11763;SDS011;5939;56.522;14.950;2023-04-16T12:40:41;7.47;;;4.93;;
11763;SDS011;5939;56.522;14.950;2023-04-16T12:43:07;6.37;;;4.90;;
11763;SDS011;5939;56.522;14.950;2023-04-16T12:45:34;7.37;;;5.27;;
11763;SDS011;5939;56.522;14.950;2023-04-16T12:48:00;6.83;;;4.63;;
11763;SDS011;5939;56.522;14.950;2023-04-16T12:50:26;7.30;;;4.67;;
11763;SDS011;5939;56.522;14.950;2023-04-16T12:52:53;8.20;;;5.03;;
11763;SDS011;5939;56.522;14.950;2023-04-16T12:55:20;5.37;;;4.33;;
11763;SDS011;5939;56.522;14.950;2023-04-16T12:57:45;6.60;;;4.50;;
11763;SDS011;5939;56.522;14.950;2023-04-16T13:00:13;5.73;;;4.43;;
11763;SDS011;5939;56.522;14.950;2023-04-16T13:02:40;8.17;;;4.60;;
11763;SDS011;5939;56.522;14.950;2023-04-16T13:05:06;8.67;;;4.77;;
11763;SDS011;5939;56.522;14.950;2023-04-16T13:07:32;5.63;;;4.57;;
11763;SDS011;5939;56.522;14.950;2023-04-16T13:09:59;6.40;;;4.47;;
11763;SDS011;5939;56.522;14.950;2023-04-16T13:12:25;7.53;;;4.40;;
11763;SDS011;5939;56.522;14.950;2023-04-16T13:14:51;5.47;;;4.13;;
11763;SDS011;5939;56.522;14.950;2023-04-16T13:17:17;6.20;;;4.67;;
11763;SDS011;5939;56.522;14.950;2023-04-16T13:19:43;8.20;;;4.30;;
11763;SDS011;5939;56.522;14.950;2023-04-16T13:22:09;7.20;;;4.80;;
11763;SDS011;5939;56.522;14.950;2023-04-16T13:24:35;6.53;;;4.50;;
11763;SDS011;5939;56.522;14.950;2023-04-16T13:27:01;6.70;;;4.40;;
11763;SDS011;5939;56.522;14.950;2023-04-16T13:29:27;6.93;;;4.40;;
11763;SDS011;5939;56.522;14.950;2023-04-16T13:31:53;6.27;;;4.77;;
11763;SDS011;5939;56.522;14.950;2023-04-16T13:34:19;5.80;;;4.63;;
11763;SDS011;5939;56.522;14.950;2023-04-16T13:36:45;6.97;;;4.43;;
11763;SDS011;5939;56.522;14.950;2023-04-16T13:39:11;5.73;;;4.30;;
11763;SDS011;5939;56.522;14.950;2023-04-16T13:41:37;6.47;;;4.37;;
11763;SDS011;5939;56.522;14.950;2023-04-16T13:44:02;7.13;;;4.67;;
11763;SDS011;5939;56.522;14.950;2023-04-16T13:46:28;6.90;;;4.97;;
11763;SDS011;5939;56.522;14.950;2023-04-16T13:48:54;6.80;;;5.10;;
11763;SDS011;5939;56.522;14.950;2023-04-16T13:51:20;6.60;;;5.13;;
11763;SDS011;5939;56.522;14.950;2023-04-16T13:53:46;7.80;;;4.60;;
11763;SDS011;5939;56.522;14.950;2023-04-16T13:56:12;6.20;;;4.70;;
11763;SDS011;5939;56.522;14.950;2023-04-16T13:58:38;5.13;;;4.63;;
11763;SDS011;5939;56.522;14.950;2023-04-16T14:01:04;5.87;;;4.80;;
11763;SDS011;5939;56.522;14.950;2023-04-16T14:03:29;5.20;;;4.67;;
11763;SDS011;5939;56.522;14.950;2023-04-16T14:05:59;6.47;;;4.67;;
11763;SDS011;5939;56.522;14.950;2023-04-16T14:08:28;7.70;;;5.03;;
11763;SDS011;5939;56.522;14.950;2023-04-16T14:10:55;6.87;;;4.60;;
11763;SDS011;5939;56.522;14.950;2023-04-16T14:13:22;5.43;;;4.80;;
11763;SDS011;5939;56.522;14.950;2023-04-16T14:15:48;4.97;;;4.20;;
11763;SDS011;5939;56.522;14.950;2023-04-16T14:18:14;6.77;;;5.17;;
11763;SDS011;5939;56.522;14.950;2023-04-16T14:20:40;5.17;;;4.67;;
11763;SDS011;5939;56.522;14.950;2023-04-16T14:23:06;7.90;;;4.77;;
11763;SDS011;5939;56.522;14.950;2023-04-16T14:25:32;6.43;;;5.03;;
11763;SDS011;5939;56.522;14.950;2023-04-16T14:27:58;7.60;;;5.00;;
11763;SDS011;5939;56.522;14.950;2023-04-16T14:30:25;6.47;;;4.73;;
11763;SDS011;5939;56.522;14.950;2023-04-16T14:32:50;5.60;;;4.37;;
11763;SDS011;5939;56.522;14.950;2023-04-16T14:35:16;5.13;;;4.57;;
11763;SDS011;5939;56.522;14.950;2023-04-16T14:37:42;8.27;;;4.70;;
11763;SDS011;5939;56.522;14.950;2023-04-16T14:40:08;6.87;;;4.73;;
11763;SDS011;5939;56.522;14.950;2023-04-16T14:42:35;5.20;;;4.47;;
11763;SDS011;5939;56.522;14.950;2023-04-16T14:45:01;7.53;;;4.33;;
11763;SDS011;5939;56.522;14.950;2023-04-16T14:47:30;7.53;;;5.03;;
11763;SDS011;5939;56.522;14.950;2023-04-16T14:49:56;7.20;;;5.00;;